EDDF 200020Z VRB01KT 9999 VCSH FEW030CB 16/16 Q1021 TEMPO -TSRA EDDF 192350Z 23003KT 190V270 9999 -SHRA FEW030CB 16/16 Q1021 TEMPO -TSRA EDDF 192320Z VRB02KT CAVOK 16/15 Q1022 NOSIG EDDF 192250Z VRB02KT CAVOK 16/16 Q1022 NOSIG EDDF 192220Z VRB02KT CAVOK 16/16 Q1022 NOSIG EDDF 192150Z VRB02KT CAVOK 17/16 Q1021 NOSIG EDDF 192120Z VRB01KT CAVOK 17/16 Q1021 NOSIG EDDF 192050Z 31005KT 280V340 CAVOK 18/17 Q1021 NOSIG EDDF 192020Z 29003KT 260V320 9999 FEW050CB 18/17 Q1021 NOSIG EDDF 191950Z VRB02KT 9999 -SHRA FEW050CB 18/17 Q1020 NOSIG EDDF 191920Z 11009KT 9999 -SHRA FEW050CB 19/17 Q1020 NOSIG EDDF 191850Z 04004KT 340V070 9999 -SHRA FEW060TCU 19/17 Q1020 NOSIG EDDF 191820Z 33004KT 280V060 9999 -SHRA FEW035 FEW050CB 19/17 Q1020 RETSRA NOSIG EDDF 191750Z VRB04KT 9999 -TSRA FEW035 SCT050CB 19/16 Q1019 RERA BECMG NSW EDDF 191720Z 29013KT 9999 -TSRA FEW035 BKN050CB 19/16 Q1021 RESHRA TEMPO 28020G35KT 4000 TSRA EDDF 191650Z 33016KT 9999 -TSRA BKN050CB 22/14 Q1019 TEMPO 4000 TSRA EDDF 191620Z 25013KT 9999 -SHRA SCT060CB 29/16 Q1018 BECMG TSRA EDDF 191550Z 23010KT 9999 FEW060CB 29/15 Q1017 NOSIG EDDF 191520Z 22012KT 170V260 9999 FEW060TCU 30/14 Q1017 NOSIG EDDF 191450Z 20012KT 170V230 9999 FEW060TCU 31/15 Q1017 NOSIG EDDF 191420Z 20011KT 140V240 9999 FEW060TCU 31/15 Q1017 NOSIG EDDF 191350Z 19009KT 160V240 CAVOK 31/14 Q1017 NOSIG EDDF 191320Z 22009KT 160V260 CAVOK 29/14 Q1018 NOSIG EDDF 191250Z 19008KT 160V250 CAVOK 30/14 Q1018 NOSIG EDDF 191220Z 22006KT 190V260 CAVOK 28/13 Q1019 NOSIG EDDF 191150Z 16004KT 070V230 CAVOK 28/13 Q1019 NOSIG EDDF 191120Z 19005KT 130V290 CAVOK 28/13 Q1019 NOSIG EDDF 191050Z 22006KT 160V280 CAVOK 27/12 Q1019 NOSIG EDDF 191020Z 17008KT 140V210 CAVOK 27/11 Q1020 NOSIG EDDF 190950Z 20007KT 160V240 CAVOK 27/09 Q1020 NOSIG EDDF 190920Z 19004KT 120V260 CAVOK 26/10 Q1020 NOSIG EDDF 190850Z VRB04KT CAVOK 25/10 Q1020 NOSIG EDDF 190820Z 16004KT 110V200 CAVOK 24/10 Q1020 NOSIG EDDF 190750Z VRB03KT CAVOK 24/10 Q1020 NOSIG EDDF 190720Z 09004KT 050V140 CAVOK 23/11 Q1020 NOSIG EDDF 190650Z 07006KT CAVOK 21/10 Q1020 NOSIG EDDF 190620Z 05005KT CAVOK 20/10 Q1020 NOSIG EDDF 190550Z 06006KT CAVOK 19/10 Q1020 NOSIG EDDF 190520Z 05006KT CAVOK 19/10 Q1020 NOSIG EDDF 190450Z 05007KT CAVOK 18/10 Q1020 NOSIG EDDF 190420Z 05003KT CAVOK 17/11 Q1020 NOSIG EDDF 190350Z 06007KT CAVOK 16/12 Q1020 NOSIG EDDF 190320Z 00000KT CAVOK 16/11 Q1020 NOSIG EDDF 190250Z 06006KT CAVOK 16/12 Q1020 NOSIG EDDF 190220Z 06005KT CAVOK 15/12 Q1020 NOSIG EDDF 190150Z 06007KT CAVOK 16/12 Q1020 NOSIG EDDF 190120Z 08005KT CAVOK 16/12 Q1020 NOSIG EDDF 190050Z 09005KT CAVOK 17/12 Q1020 NOSIG EDDF 190020Z 07007KT CAVOK 19/12 Q1020 NOSIG EDDF 182350Z 08007KT CAVOK 18/12 Q1020 NOSIG EDDF 182320Z 04004KT 340V100 CAVOK 17/13 Q1020 NOSIG EDDF 182250Z 30003KT 210V020 CAVOK 18/13 Q1021 NOSIG EDDF 182220Z 03004KT CAVOK 19/12 Q1020 NOSIG EDDF 182150Z 08004KT 040V110 CAVOK 20/13 Q1020 NOSIG EDDF 182120Z 10006KT CAVOK 23/12 Q1020 NOSIG EDDF 182050Z 11007KT CAVOK 24/12 Q1020 NOSIG EDDF 182020Z 11007KT CAVOK 24/12 Q1020 NOSIG EDDF 181950Z 10009KT CAVOK 24/12 Q1020 NOSIG EDDF 181920Z 10008KT CAVOK 25/12 Q1020 NOSIG EDDF 181850Z 11008KT CAVOK 26/12 Q1020 NOSIG EDDF 181820Z 11009KT CAVOK 27/12 Q1020 NOSIG EDDF 181750Z 10010KT CAVOK 28/12 Q1020 BECMG 07005KT EDDF 181720Z 10012KT CAVOK 29/11 Q1020 BECMG 07005KT EDDF 181650Z 09010KT 070V140 CAVOK 29/10 Q1020 NOSIG EDDF 181620Z 11008KT 080V150 CAVOK 30/10 Q1020 NOSIG EDDF 181550Z 11009KT 080V140 CAVOK 30/10 Q1020 NOSIG EDDF 181520Z 16007KT 110V210 CAVOK 30/10 Q1020 NOSIG EDDF 181450Z 15006KT 080V210 CAVOK 30/10 Q1020 NOSIG EDDF 181420Z 14007KT 100V190 CAVOK 28/10 Q1021 NOSIG EDDF 181350Z 20008KT 160V230 CAVOK 29/10 Q1021 NOSIG EDDF 181320Z VRB06KT CAVOK 30/10 Q1021 NOSIG EDDF 181250Z VRB02KT CAVOK 30/11 Q1021 NOSIG

METAR Messwerte "FRANKFURT MAIN A" EDDF

Zurück zur Übersicht

Ortsname
Ländercode / m ü. NN
Zeit Temperatur Taupunkt Rel.
Luftfeuchte
Luftdruck:
Altimeter
NN
Station
Wind in Beaufort
(Knoten)
Sichtweite
(Meter)
Wolken
(Meter über Grund)
Wettererscheinung
FRANKFURT MAIN A
DE 113
Fr 20.05. 02:201616100 %1021
1021
1007
Uml 1 (1)>= 10000Leicht bewölkt Cb (910) Bald zeitweise: Gewitter mit Regen (schwach)
FRANKFURT MAIN A
DE 113
Fr 20.05. 01:501616100 %1021
1021
1007
SW 2 (3)
S - W
>= 10000Leicht bewölkt Cb (910)Regen-Schauer (schwach)
Bald zeitweise: Gewitter mit Regen (schwach)
FRANKFURT MAIN A
DE 113
Fr 20.05. 01:20161594 %1022
1022
1008
Uml 1 (2)>= 10000Nicht signifikant 
FRANKFURT MAIN A
DE 113
Fr 20.05. 00:501616100 %1022
1022
1008
Uml 1 (2)>= 10000Nicht signifikant 
FRANKFURT MAIN A
DE 113
Fr 20.05. 00:201616100 %1022
1022
1008
Uml 1 (2)>= 10000Nicht signifikant 
FRANKFURT MAIN A
DE 113
Do 19.05. 23:50171694 %1021
1021
1007
Uml 1 (2)>= 10000Nicht signifikant 
FRANKFURT MAIN A
DE 113
Do 19.05. 23:20171694 %1021
1021
1007
Uml 1 (1)>= 10000Nicht signifikant 
FRANKFURT MAIN A
DE 113
Do 19.05. 22:50181794 %1021
1021
1007
NW 2 (5)
W - NNW
>= 10000Nicht signifikant 
FRANKFURT MAIN A
DE 113
Do 19.05. 22:20181794 %1021
1021
1007
WNW 2 (3)
W - NW
>= 10000Leicht bewölkt Cb (1500) 
FRANKFURT MAIN A
DE 113
Do 19.05. 21:50181794 %1020
1020
1006
Uml 1 (2)>= 10000Leicht bewölkt Cb (1500)Regen-Schauer (schwach)
FRANKFURT MAIN A
DE 113
Do 19.05. 21:20191788 %1020
1020
1006
OSO 3 (9)>= 10000Leicht bewölkt Cb (1500)Regen-Schauer (schwach)
FRANKFURT MAIN A
DE 113
Do 19.05. 20:50191788 %1020
1020
1006
NO 2 (4)
NNW - ONO
>= 10000Leicht bewölkt (1800)Regen-Schauer (schwach)
FRANKFURT MAIN A
DE 113
Do 19.05. 20:20191788 %1020
1020
1006
NNW 2 (4)
W - ONO
>= 10000Leicht bewölkt Cb (1500)
Leicht bewölkt (1100)
Regen-Schauer (schwach)
FRANKFURT MAIN A
DE 113
Do 19.05. 19:50191683 %1019
1019
1005
Uml 2 (4)>= 10000Wolkig Cb (1500)
Leicht bewölkt (1100)
Gewitter mit Regen (schwach)
FRANKFURT MAIN A
DE 113
Do 19.05. 19:20191683 %1021
1021
1007
WNW 4 (13)
Bald zeitweise:
W 5 (20) - 8 (35)
>= 10000
Bald zeitweise: 4000
Stark bewölkt Cb (1500)
Leicht bewölkt (1100)
Gewitter mit Regen (schwach)
Bald zeitweise: Gewitter mit Regen
FRANKFURT MAIN A
DE 113
Do 19.05. 18:50221460 %1019
1019
1005
NNW 5 (16)>= 10000
Bald zeitweise: 4000
Stark bewölkt Cb (1500)Gewitter mit Regen (schwach)
Bald zeitweise: Gewitter mit Regen
FRANKFURT MAIN A
DE 113
Do 19.05. 18:20291645 %1018
1017
1004
WSW 4 (13)>= 10000Wolkig Cb (1800)Regen-Schauer (schwach)
Bald Übergang zu: Gewitter mit Regen
FRANKFURT MAIN A
DE 113
Do 19.05. 17:50291543 %1017
1016
1003
SW 3 (10)>= 10000Leicht bewölkt Cb (1800) 
FRANKFURT MAIN A
DE 113
Do 19.05. 17:20301438 %1017
1016
1003
SW 4 (12)
S - W
>= 10000Leicht bewölkt (1800) 
FRANKFURT MAIN A
DE 113
Do 19.05. 16:50311538 %1017
1016
1003
SSW 4 (12)
S - SW
>= 10000Leicht bewölkt (1800) 
FRANKFURT MAIN A
DE 113
Do 19.05. 16:20311538 %1017
1016
1003
SSW 4 (11)
SO - WSW
>= 10000Leicht bewölkt (1800) 
FRANKFURT MAIN A
DE 113
Do 19.05. 15:50311436 %1017
1016
1003
S 3 (9)
SSO - WSW
>= 10000Nicht signifikant 
FRANKFURT MAIN A
DE 113
Do 19.05. 15:20291440 %1018
1017
1004
SW 3 (9)
SSO - W
>= 10000Nicht signifikant 
FRANKFURT MAIN A
DE 113
Do 19.05. 14:50301438 %1018
1017
1004
S 3 (8)
SSO - WSW
>= 10000Nicht signifikant 
FRANKFURT MAIN A
DE 113
Do 19.05. 14:20281340 %1019
1018
1005
SW 2 (6)
S - W
>= 10000Nicht signifikant 
FRANKFURT MAIN A
DE 113
Do 19.05. 13:50281340 %1019
1018
1005
SSO 2 (4)
ONO - SW
>= 10000Nicht signifikant 
FRANKFURT MAIN A
DE 113
Do 19.05. 13:20281340 %1019
1018
1005
S 2 (5)
SO - WNW
>= 10000Nicht signifikant 
FRANKFURT MAIN A
DE 113
Do 19.05. 12:50271239 %1019
1018
1005
SW 2 (6)
SSO - W
>= 10000Nicht signifikant 
FRANKFURT MAIN A
DE 113
Do 19.05. 12:20271137 %1020
1019
1006
S 3 (8)
SO - SSW
>= 10000Nicht signifikant 
FRANKFURT MAIN A
DE 113
Do 19.05. 11:5027932 %1020
1019
1006
SSW 3 (7)
SSO - WSW
>= 10000Nicht signifikant 
FRANKFURT MAIN A
DE 113
Do 19.05. 11:20261037 %1020
1020
1006
S 2 (4)
OSO - W
>= 10000Nicht signifikant 
FRANKFURT MAIN A
DE 113
Do 19.05. 10:50251039 %1020
1020
1006
Uml 2 (4)>= 10000Nicht signifikant 
FRANKFURT MAIN A
DE 113
Do 19.05. 10:20241041 %1020
1020
1006
SSO 2 (4)
OSO - SSW
>= 10000Nicht signifikant 
FRANKFURT MAIN A
DE 113
Do 19.05. 09:50241041 %1020
1020
1006
Uml 2 (3)>= 10000Nicht signifikant 
FRANKFURT MAIN A
DE 113
Do 19.05. 09:20231147 %1020
1020
1006
O 2 (4)
NO - SO
>= 10000Nicht signifikant 
FRANKFURT MAIN A
DE 113
Do 19.05. 08:50211049 %1020
1020
1006
ONO 2 (6)>= 10000Nicht signifikant 
FRANKFURT MAIN A
DE 113
Do 19.05. 08:20201053 %1020
1020
1006
NO 2 (5)>= 10000Nicht signifikant 
FRANKFURT MAIN A
DE 113
Do 19.05. 07:50191056 %1020
1020
1006
ONO 2 (6)>= 10000Nicht signifikant 
FRANKFURT MAIN A
DE 113
Do 19.05. 07:20191056 %1020
1020
1006
NO 2 (6)>= 10000Nicht signifikant 
FRANKFURT MAIN A
DE 113
Do 19.05. 06:50181059 %1020
1020
1006
NO 3 (7)>= 10000Nicht signifikant 
FRANKFURT MAIN A
DE 113
Do 19.05. 06:20171168 %1020
1020
1006
NO 2 (3)>= 10000Nicht signifikant 
FRANKFURT MAIN A
DE 113
Do 19.05. 05:50161277 %1020
1020
1006
ONO 3 (7)>= 10000Nicht signifikant 
FRANKFURT MAIN A
DE 113
Do 19.05. 05:20161172 %1020
1020
1006
Windstill>= 10000Nicht signifikant 
FRANKFURT MAIN A
DE 113
Do 19.05. 04:50161277 %1020
1020
1006
ONO 2 (6)>= 10000Nicht signifikant 
FRANKFURT MAIN A
DE 113
Do 19.05. 04:20151282 %1020
1020
1006
ONO 2 (5)>= 10000Nicht signifikant 
FRANKFURT MAIN A
DE 113
Do 19.05. 03:50161277 %1020
1020
1006
ONO 3 (7)>= 10000Nicht signifikant 
FRANKFURT MAIN A
DE 113
Do 19.05. 03:20161277 %1020
1020
1006
O 2 (5)>= 10000Nicht signifikant 
FRANKFURT MAIN A
DE 113
Do 19.05. 02:50171272 %1020
1020
1006
O 2 (5)>= 10000Nicht signifikant 
FRANKFURT MAIN A
DE 113
Do 19.05. 02:20191264 %1020
1020
1006
ONO 3 (7)>= 10000Nicht signifikant 
FRANKFURT MAIN A
DE 113
Do 19.05. 01:50181268 %1020
1020
1006
O 3 (7)>= 10000Nicht signifikant 
FRANKFURT MAIN A
DE 113
Do 19.05. 01:20171377 %1020
1020
1006
NO 2 (4)
NNW - O
>= 10000Nicht signifikant 
FRANKFURT MAIN A
DE 113
Do 19.05. 00:50181373 %1021
1021
1007
WNW 2 (3)
SSW - NNO
>= 10000Nicht signifikant 
FRANKFURT MAIN A
DE 113
Do 19.05. 00:20191264 %1020
1020
1006
NNO 2 (4)>= 10000Nicht signifikant 
FRANKFURT MAIN A
DE 113
Mi 18.05. 23:50201364 %1020
1020
1006
O 2 (4)
NO - OSO
>= 10000Nicht signifikant 
FRANKFURT MAIN A
DE 113
Mi 18.05. 23:20231250 %1020
1020
1006
O 2 (6)>= 10000Nicht signifikant 
FRANKFURT MAIN A
DE 113
Mi 18.05. 22:50241247 %1020
1020
1006
OSO 3 (7)>= 10000Nicht signifikant 
FRANKFURT MAIN A
DE 113
Mi 18.05. 22:20241247 %1020
1020
1006
OSO 3 (7)>= 10000Nicht signifikant 
FRANKFURT MAIN A
DE 113
Mi 18.05. 21:50241247 %1020
1020
1006
O 3 (9)>= 10000Nicht signifikant 
FRANKFURT MAIN A
DE 113
Mi 18.05. 21:20251244 %1020
1020
1006
O 3 (8)>= 10000Nicht signifikant 
FRANKFURT MAIN A
DE 113
Mi 18.05. 20:50261242 %1020
1020
1006
OSO 3 (8)>= 10000Nicht signifikant 
FRANKFURT MAIN A
DE 113
Mi 18.05. 20:20271239 %1020
1019
1006
OSO 3 (9)>= 10000Nicht signifikant 
FRANKFURT MAIN A
DE 113
Mi 18.05. 19:50281237 %1020
1019
1006
O 3 (10)
Bald Übergang zu:
ONO 2 (5)
>= 10000Nicht signifikant 
FRANKFURT MAIN A
DE 113
Mi 18.05. 19:20291133 %1020
1019
1006
O 4 (12)
Bald Übergang zu:
ONO 2 (5)
>= 10000Nicht signifikant 
FRANKFURT MAIN A
DE 113
Mi 18.05. 18:50291031 %1020
1019
1006
O 3 (10)
ONO - SO
>= 10000Nicht signifikant 
FRANKFURT MAIN A
DE 113
Mi 18.05. 18:20301029 %1020
1019
1006
OSO 3 (8)
O - SSO
>= 10000Nicht signifikant 
FRANKFURT MAIN A
DE 113
Mi 18.05. 17:50301029 %1020
1019
1006
OSO 3 (9)
O - SO
>= 10000Nicht signifikant 
FRANKFURT MAIN A
DE 113
Mi 18.05. 17:20301029 %1020
1019
1006
SSO 3 (7)
OSO - SSW
>= 10000Nicht signifikant 
FRANKFURT MAIN A
DE 113
Mi 18.05. 16:50301029 %1020
1019
1006
SSO 2 (6)
O - SSW
>= 10000Nicht signifikant 
FRANKFURT MAIN A
DE 113
Mi 18.05. 16:20281032 %1021
1020
1007
SO 3 (7)
O - S
>= 10000Nicht signifikant 
FRANKFURT MAIN A
DE 113
Mi 18.05. 15:50291031 %1021
1020
1007
SSW 3 (8)
SSO - SW
>= 10000Nicht signifikant 
FRANKFURT MAIN A
DE 113
Mi 18.05. 15:20301029 %1021
1020
1007
Uml 2 (6)>= 10000Nicht signifikant 
FRANKFURT MAIN A
DE 113
Mi 18.05. 14:50301131 %1021
1020
1007
Uml 1 (2)>= 10000Nicht signifikant 

Altimeter: Einstellung am Altimeter (Höhenmesser), die Höhe 0 muss auf diesen Luftdruckwert zeigen, damit das Gerät die Stationshöhe richtig anzeigt.

NN: Luftdruck reduziert auf "Normal Null", auf Meereshöhe, dieser von der Temperatur abhängige Wert wird bisweilen unkorrekt einfach als "Luftdruck" bezeichnet. Eigentlich nur eine fiktive Größe, die es erlaubt, Stationen auf unterschiedlichen Höhen miteinander zu vergleichen.

Station: Realer Luftdruck an der Station.